sensor_id;sensor_type;location;lat;lon;timestamp;P1;durP1;ratioP1;P2;durP2;ratioP2
2039;SDS011;1025;42.686;23.350;2024-02-23T00:01:45;11.37;;;10.10;;
2039;SDS011;1025;42.686;23.350;2024-02-23T00:04:14;12.03;;;9.90;;
2039;SDS011;1025;42.686;23.350;2024-02-23T00:06:44;13.23;;;9.93;;
2039;SDS011;1025;42.686;23.350;2024-02-23T00:09:12;10.37;;;9.30;;
2039;SDS011;1025;42.686;23.350;2024-02-23T00:11:41;12.57;;;9.60;;
2039;SDS011;1025;42.686;23.350;2024-02-23T00:14:15;11.47;;;10.17;;
2039;SDS011;1025;42.686;23.350;2024-02-23T00:16:52;9.83;;;8.63;;
2039;SDS011;1025;42.686;23.350;2024-02-23T00:19:19;12.10;;;10.50;;
2039;SDS011;1025;42.686;23.350;2024-02-23T00:21:49;10.03;;;8.50;;
2039;SDS011;1025;42.686;23.350;2024-02-23T00:24:23;14.13;;;10.67;;
2039;SDS011;1025;42.686;23.350;2024-02-23T00:26:58;12.60;;;9.43;;
2039;SDS011;1025;42.686;23.350;2024-02-23T00:29:31;11.67;;;9.87;;
2039;SDS011;1025;42.686;23.350;2024-02-23T00:32:00;11.80;;;10.20;;
2039;SDS011;1025;42.686;23.350;2024-02-23T00:34:29;18.87;;;10.20;;
2039;SDS011;1025;42.686;23.350;2024-02-23T00:37:07;11.87;;;9.07;;
2039;SDS011;1025;42.686;23.350;2024-02-23T00:39:36;9.60;;;8.03;;
2039;SDS011;1025;42.686;23.350;2024-02-23T00:42:03;9.10;;;7.80;;
2039;SDS011;1025;42.686;23.350;2024-02-23T00:44:32;10.77;;;8.03;;
2039;SDS011;1025;42.686;23.350;2024-02-23T00:47:01;9.43;;;8.30;;
2039;SDS011;1025;42.686;23.350;2024-02-23T00:49:29;12.53;;;8.73;;
2039;SDS011;1025;42.686;23.350;2024-02-23T00:51:58;8.63;;;7.77;;
2039;SDS011;1025;42.686;23.350;2024-02-23T00:54:29;14.33;;;9.50;;
2039;SDS011;1025;42.686;23.350;2024-02-23T00:56:56;12.50;;;8.17;;
2039;SDS011;1025;42.686;23.350;2024-02-23T00:59:22;11.97;;;8.30;;
2039;SDS011;1025;42.686;23.350;2024-02-23T01:01:55;10.33;;;9.20;;
2039;SDS011;1025;42.686;23.350;2024-02-23T01:04:22;10.07;;;9.10;;
2039;SDS011;1025;42.686;23.350;2024-02-23T01:06:50;8.93;;;8.03;;
2039;SDS011;1025;42.686;23.350;2024-02-23T01:09:19;9.63;;;8.73;;
2039;SDS011;1025;42.686;23.350;2024-02-23T01:11:51;9.20;;;7.47;;
2039;SDS011;1025;42.686;23.350;2024-02-23T01:14:19;9.93;;;8.47;;
2039;SDS011;1025;42.686;23.350;2024-02-23T01:16:46;9.30;;;8.40;;
2039;SDS011;1025;42.686;23.350;2024-02-23T01:19:20;12.57;;;9.20;;
2039;SDS011;1025;42.686;23.350;2024-02-23T01:21:46;11.30;;;8.53;;
2039;SDS011;1025;42.686;23.350;2024-02-23T01:24:15;10.53;;;8.30;;
2039;SDS011;1025;42.686;23.350;2024-02-23T01:26:46;11.10;;;8.47;;
2039;SDS011;1025;42.686;23.350;2024-02-23T01:29:12;13.20;;;8.70;;
2039;SDS011;1025;42.686;23.350;2024-02-23T01:31:42;9.30;;;8.40;;
2039;SDS011;1025;42.686;23.350;2024-02-23T01:34:11;8.17;;;7.37;;
2039;SDS011;1025;42.686;23.350;2024-02-23T01:39:43;9.73;;;8.50;;
2039;SDS011;1025;42.686;23.350;2024-02-23T01:42:12;8.60;;;6.90;;
2039;SDS011;1025;42.686;23.350;2024-02-23T01:44:39;9.27;;;8.13;;
2039;SDS011;1025;42.686;23.350;2024-02-23T01:47:08;8.60;;;7.73;;
2039;SDS011;1025;42.686;23.350;2024-02-23T01:49:39;9.47;;;7.70;;
2039;SDS011;1025;42.686;23.350;2024-02-23T01:52:07;8.80;;;7.87;;
2039;SDS011;1025;42.686;23.350;2024-02-23T01:54:35;9.40;;;7.97;;
2039;SDS011;1025;42.686;23.350;2024-02-23T01:57:08;7.80;;;7.13;;
2039;SDS011;1025;42.686;23.350;2024-02-23T01:59:41;9.57;;;8.37;;
2039;SDS011;1025;42.686;23.350;2024-02-23T02:02:07;9.73;;;8.27;;
2039;SDS011;1025;42.686;23.350;2024-02-23T02:04:34;9.47;;;8.40;;
2039;SDS011;1025;42.686;23.350;2024-02-23T02:07:03;11.87;;;8.00;;
2039;SDS011;1025;42.686;23.350;2024-02-23T02:09:33;8.43;;;7.60;;
2039;SDS011;1025;42.686;23.350;2024-02-23T02:12:12;9.73;;;8.73;;
2039;SDS011;1025;42.686;23.350;2024-02-23T02:14:41;10.20;;;7.90;;
2039;SDS011;1025;42.686;23.350;2024-02-23T02:17:15;8.03;;;7.17;;
2039;SDS011;1025;42.686;23.350;2024-02-23T02:19:52;8.90;;;8.07;;
2039;SDS011;1025;42.686;23.350;2024-02-23T02:22:18;9.60;;;8.67;;
2039;SDS011;1025;42.686;23.350;2024-02-23T02:24:48;15.70;;;8.83;;
2039;SDS011;1025;42.686;23.350;2024-02-23T02:27:20;10.13;;;8.00;;
2039;SDS011;1025;42.686;23.350;2024-02-23T02:29:53;8.00;;;7.20;;
2039;SDS011;1025;42.686;23.350;2024-02-23T02:32:22;8.43;;;7.63;;
2039;SDS011;1025;42.686;23.350;2024-02-23T02:34:49;9.27;;;8.37;;
2039;SDS011;1025;42.686;23.350;2024-02-23T02:37:21;9.90;;;8.90;;
2039;SDS011;1025;42.686;23.350;2024-02-23T02:39:50;11.07;;;8.20;;
2039;SDS011;1025;42.686;23.350;2024-02-23T02:42:16;9.70;;;8.60;;
2039;SDS011;1025;42.686;23.350;2024-02-23T02:44:52;10.97;;;8.50;;
2039;SDS011;1025;42.686;23.350;2024-02-23T02:47:27;12.77;;;8.57;;
2039;SDS011;1025;42.686;23.350;2024-02-23T02:49:58;9.40;;;8.43;;
2039;SDS011;1025;42.686;23.350;2024-02-23T02:52:24;9.13;;;8.27;;
2039;SDS011;1025;42.686;23.350;2024-02-23T02:54:52;10.00;;;7.57;;
2039;SDS011;1025;42.686;23.350;2024-02-23T02:57:24;10.37;;;9.37;;
2039;SDS011;1025;42.686;23.350;2024-02-23T03:00:02;8.17;;;7.37;;
2039;SDS011;1025;42.686;23.350;2024-02-23T03:02:33;14.07;;;9.63;;
2039;SDS011;1025;42.686;23.350;2024-02-23T03:05:02;9.13;;;8.20;;
2039;SDS011;1025;42.686;23.350;2024-02-23T03:07:38;9.70;;;8.00;;
2039;SDS011;1025;42.686;23.350;2024-02-23T03:10:06;16.40;;;11.30;;
2039;SDS011;1025;42.686;23.350;2024-02-23T03:12:33;19.07;;;9.77;;
2039;SDS011;1025;42.686;23.350;2024-02-23T03:15:03;9.57;;;8.67;;
2039;SDS011;1025;42.686;23.350;2024-02-23T03:17:32;11.17;;;9.03;;
2039;SDS011;1025;42.686;23.350;2024-02-23T03:20:01;12.67;;;10.50;;
2039;SDS011;1025;42.686;23.350;2024-02-23T03:22:32;11.70;;;9.20;;
2039;SDS011;1025;42.686;23.350;2024-02-23T03:25:00;9.50;;;8.60;;
2039;SDS011;1025;42.686;23.350;2024-02-23T03:27:33;12.43;;;8.77;;
2039;SDS011;1025;42.686;23.350;2024-02-23T03:30:08;11.13;;;8.80;;
2039;SDS011;1025;42.686;23.350;2024-02-23T03:32:37;10.73;;;9.00;;
2039;SDS011;1025;42.686;23.350;2024-02-23T03:35:11;11.03;;;8.30;;
2039;SDS011;1025;42.686;23.350;2024-02-23T03:37:40;11.63;;;9.23;;
2039;SDS011;1025;42.686;23.350;2024-02-23T03:40:09;13.27;;;8.80;;
2039;SDS011;1025;42.686;23.350;2024-02-23T03:42:38;12.63;;;9.53;;
2039;SDS011;1025;42.686;23.350;2024-02-23T03:45:06;11.83;;;8.13;;
2039;SDS011;1025;42.686;23.350;2024-02-23T03:47:44;13.80;;;10.10;;
2039;SDS011;1025;42.686;23.350;2024-02-23T03:50:10;12.97;;;9.03;;
2039;SDS011;1025;42.686;23.350;2024-02-23T03:52:43;9.67;;;8.67;;
2039;SDS011;1025;42.686;23.350;2024-02-23T03:55:11;9.03;;;7.97;;
2039;SDS011;1025;42.686;23.350;2024-02-23T03:57:38;9.47;;;8.57;;
2039;SDS011;1025;42.686;23.350;2024-02-23T04:00:05;10.17;;;9.17;;
2039;SDS011;1025;42.686;23.350;2024-02-23T04:02:36;10.87;;;8.47;;
2039;SDS011;1025;42.686;23.350;2024-02-23T04:05:09;9.90;;;8.90;;
2039;SDS011;1025;42.686;23.350;2024-02-23T04:07:40;9.77;;;8.77;;
2039;SDS011;1025;42.686;23.350;2024-02-23T04:10:08;8.93;;;8.03;;
2039;SDS011;1025;42.686;23.350;2024-02-23T04:15:19;10.93;;;9.60;;
2039;SDS011;1025;42.686;23.350;2024-02-23T04:17:50;10.20;;;9.20;;
2039;SDS011;1025;42.686;23.350;2024-02-23T04:20:18;9.30;;;8.40;;
2039;SDS011;1025;42.686;23.350;2024-02-23T04:22:51;14.60;;;9.47;;
2039;SDS011;1025;42.686;23.350;2024-02-23T04:25:19;10.23;;;9.10;;
2039;SDS011;1025;42.686;23.350;2024-02-23T04:27:53;20.00;;;10.33;;
2039;SDS011;1025;42.686;23.350;2024-02-23T04:30:20;15.37;;;9.43;;
2039;SDS011;1025;42.686;23.350;2024-02-23T04:32:49;12.93;;;10.60;;
2039;SDS011;1025;42.686;23.350;2024-02-23T04:35:21;11.03;;;8.10;;
2039;SDS011;1025;42.686;23.350;2024-02-23T04:37:49;9.93;;;8.97;;
2039;SDS011;1025;42.686;23.350;2024-02-23T04:40:20;10.47;;;8.93;;
2039;SDS011;1025;42.686;23.350;2024-02-23T04:42:53;10.90;;;8.87;;
2039;SDS011;1025;42.686;23.350;2024-02-23T04:45:19;18.17;;;10.93;;
2039;SDS011;1025;42.686;23.350;2024-02-23T04:47:47;11.50;;;9.60;;
2039;SDS011;1025;42.686;23.350;2024-02-23T04:50:14;12.10;;;10.57;;
2039;SDS011;1025;42.686;23.350;2024-02-23T04:52:41;15.90;;;11.27;;
2039;SDS011;1025;42.686;23.350;2024-02-23T04:55:07;16.10;;;11.40;;
2039;SDS011;1025;42.686;23.350;2024-02-23T04:57:36;16.60;;;11.50;;
2039;SDS011;1025;42.686;23.350;2024-02-23T05:00:09;18.33;;;11.27;;
2039;SDS011;1025;42.686;23.350;2024-02-23T05:02:35;23.43;;;12.67;;
2039;SDS011;1025;42.686;23.350;2024-02-23T05:05:07;20.47;;;11.13;;
2039;SDS011;1025;42.686;23.350;2024-02-23T05:07:38;22.07;;;12.57;;
2039;SDS011;1025;42.686;23.350;2024-02-23T05:10:04;11.50;;;9.00;;
2039;SDS011;1025;42.686;23.350;2024-02-23T05:12:33;26.43;;;12.77;;
2039;SDS011;1025;42.686;23.350;2024-02-23T05:15:02;18.03;;;11.37;;
2039;SDS011;1025;42.686;23.350;2024-02-23T05:17:30;10.87;;;9.70;;
2039;SDS011;1025;42.686;23.350;2024-02-23T05:19:57;12.20;;;10.43;;
2039;SDS011;1025;42.686;23.350;2024-02-23T05:22:25;11.43;;;10.23;;
2039;SDS011;1025;42.686;23.350;2024-02-23T05:24:53;12.63;;;10.87;;
2039;SDS011;1025;42.686;23.350;2024-02-23T05:27:23;11.30;;;10.03;;
2039;SDS011;1025;42.686;23.350;2024-02-23T05:29:52;13.47;;;10.67;;
2039;SDS011;1025;42.686;23.350;2024-02-23T05:32:21;19.63;;;13.47;;
2039;SDS011;1025;42.686;23.350;2024-02-23T05:34:49;14.00;;;12.17;;
2039;SDS011;1025;42.686;23.350;2024-02-23T05:37:19;14.50;;;11.63;;
2039;SDS011;1025;42.686;23.350;2024-02-23T05:39:52;10.80;;;9.70;;
2039;SDS011;1025;42.686;23.350;2024-02-23T05:42:20;12.40;;;10.03;;
2039;SDS011;1025;42.686;23.350;2024-02-23T05:44:52;10.93;;;9.83;;
2039;SDS011;1025;42.686;23.350;2024-02-23T05:47:22;14.80;;;12.03;;
2039;SDS011;1025;42.686;23.350;2024-02-23T05:49:49;12.03;;;10.97;;
2039;SDS011;1025;42.686;23.350;2024-02-23T05:52:15;16.07;;;11.67;;
2039;SDS011;1025;42.686;23.350;2024-02-23T05:54:45;12.90;;;11.03;;
2039;SDS011;1025;42.686;23.350;2024-02-23T05:57:13;16.07;;;12.10;;
2039;SDS011;1025;42.686;23.350;2024-02-23T05:59:39;15.37;;;12.33;;
2039;SDS011;1025;42.686;23.350;2024-02-23T06:02:08;12.23;;;10.97;;
2039;SDS011;1025;42.686;23.350;2024-02-23T06:04:37;12.70;;;11.47;;
2039;SDS011;1025;42.686;23.350;2024-02-23T06:07:09;10.90;;;9.10;;
2039;SDS011;1025;42.686;23.350;2024-02-23T06:09:39;14.07;;;11.40;;
2039;SDS011;1025;42.686;23.350;2024-02-23T06:12:10;13.67;;;11.23;;
2039;SDS011;1025;42.686;23.350;2024-02-23T06:14:39;11.93;;;10.33;;
2039;SDS011;1025;42.686;23.350;2024-02-23T06:17:08;17.27;;;12.43;;
2039;SDS011;1025;42.686;23.350;2024-02-23T06:19:38;14.40;;;11.30;;
2039;SDS011;1025;42.686;23.350;2024-02-23T06:22:04;16.13;;;10.60;;
2039;SDS011;1025;42.686;23.350;2024-02-23T06:24:32;12.50;;;11.27;;
2039;SDS011;1025;42.686;23.350;2024-02-23T06:27:01;15.73;;;10.80;;
2039;SDS011;1025;42.686;23.350;2024-02-23T06:29:32;24.70;;;13.80;;
2039;SDS011;1025;42.686;23.350;2024-02-23T06:32:16;12.83;;;10.93;;
2039;SDS011;1025;42.686;23.350;2024-02-23T06:34:45;11.43;;;10.23;;
2039;SDS011;1025;42.686;23.350;2024-02-23T06:37:12;16.37;;;10.30;;
2039;SDS011;1025;42.686;23.350;2024-02-23T06:39:42;14.00;;;10.90;;
2039;SDS011;1025;42.686;23.350;2024-02-23T06:42:16;12.03;;;10.67;;
2039;SDS011;1025;42.686;23.350;2024-02-23T06:44:43;15.97;;;10.90;;
2039;SDS011;1025;42.686;23.350;2024-02-23T06:47:09;12.90;;;10.20;;
2039;SDS011;1025;42.686;23.350;2024-02-23T06:49:43;11.00;;;9.90;;
2039;SDS011;1025;42.686;23.350;2024-02-23T06:52:15;12.60;;;9.53;;
2039;SDS011;1025;42.686;23.350;2024-02-23T06:54:43;13.83;;;10.57;;
2039;SDS011;1025;42.686;23.350;2024-02-23T06:57:14;13.10;;;10.13;;
2039;SDS011;1025;42.686;23.350;2024-02-23T06:59:47;11.60;;;10.47;;
2039;SDS011;1025;42.686;23.350;2024-02-23T07:02:14;16.97;;;11.60;;
2039;SDS011;1025;42.686;23.350;2024-02-23T07:04:47;12.00;;;10.53;;
2039;SDS011;1025;42.686;23.350;2024-02-23T07:07:21;20.10;;;11.63;;
2039;SDS011;1025;42.686;23.350;2024-02-23T07:09:52;28.90;;;12.50;;
2039;SDS011;1025;42.686;23.350;2024-02-23T07:12:20;13.13;;;11.40;;
2039;SDS011;1025;42.686;23.350;2024-02-23T07:14:47;14.90;;;11.20;;
2039;SDS011;1025;42.686;23.350;2024-02-23T07:17:19;14.00;;;10.90;;
2039;SDS011;1025;42.686;23.350;2024-02-23T07:19:53;13.93;;;10.97;;
2039;SDS011;1025;42.686;23.350;2024-02-23T07:22:35;14.10;;;11.90;;
2039;SDS011;1025;42.686;23.350;2024-02-23T07:25:04;16.33;;;12.13;;
2039;SDS011;1025;42.686;23.350;2024-02-23T07:27:33;12.13;;;10.87;;
2039;SDS011;1025;42.686;23.350;2024-02-23T07:30:08;13.93;;;12.53;;
2039;SDS011;1025;42.686;23.350;2024-02-23T07:32:34;16.43;;;12.90;;
2039;SDS011;1025;42.686;23.350;2024-02-23T07:35:11;17.10;;;12.00;;
2039;SDS011;1025;42.686;23.350;2024-02-23T07:37:38;15.90;;;12.43;;
2039;SDS011;1025;42.686;23.350;2024-02-23T07:40:10;12.47;;;10.57;;
2039;SDS011;1025;42.686;23.350;2024-02-23T07:42:39;16.03;;;11.13;;
2039;SDS011;1025;42.686;23.350;2024-02-23T07:45:06;13.33;;;12.03;;
2039;SDS011;1025;42.686;23.350;2024-02-23T07:47:37;16.80;;;11.80;;
2039;SDS011;1025;42.686;23.350;2024-02-23T07:50:05;15.00;;;12.20;;
2039;SDS011;1025;42.686;23.350;2024-02-23T07:52:37;16.37;;;11.90;;
2039;SDS011;1025;42.686;23.350;2024-02-23T07:55:06;17.13;;;11.67;;
2039;SDS011;1025;42.686;23.350;2024-02-23T07:57:36;18.27;;;12.03;;
2039;SDS011;1025;42.686;23.350;2024-02-23T08:00:05;14.83;;;11.57;;
2039;SDS011;1025;42.686;23.350;2024-02-23T08:02:34;15.70;;;12.30;;
2039;SDS011;1025;42.686;23.350;2024-02-23T08:05:09;13.77;;;10.57;;
2039;SDS011;1025;42.686;23.350;2024-02-23T08:07:44;17.33;;;10.77;;
2039;SDS011;1025;42.686;23.350;2024-02-23T08:10:11;16.07;;;11.03;;
2039;SDS011;1025;42.686;23.350;2024-02-23T08:12:39;18.33;;;11.07;;
2039;SDS011;1025;42.686;23.350;2024-02-23T08:15:10;18.70;;;12.20;;
2039;SDS011;1025;42.686;23.350;2024-02-23T08:17:37;19.30;;;10.67;;
2039;SDS011;1025;42.686;23.350;2024-02-23T08:20:09;12.67;;;10.57;;
2039;SDS011;1025;42.686;23.350;2024-02-23T08:22:38;16.50;;;12.80;;
2039;SDS011;1025;42.686;23.350;2024-02-23T08:25:04;25.87;;;13.67;;
2039;SDS011;1025;42.686;23.350;2024-02-23T08:27:33;17.40;;;11.30;;
2039;SDS011;1025;42.686;23.350;2024-02-23T08:30:01;24.23;;;11.30;;
2039;SDS011;1025;42.686;23.350;2024-02-23T08:32:30;14.00;;;11.23;;
2039;SDS011;1025;42.686;23.350;2024-02-23T08:35:00;15.70;;;10.37;;
2039;SDS011;1025;42.686;23.350;2024-02-23T08:37:30;13.33;;;11.80;;
2039;SDS011;1025;42.686;23.350;2024-02-23T08:39:59;22.37;;;12.20;;
2039;SDS011;1025;42.686;23.350;2024-02-23T08:42:29;15.00;;;11.97;;
2039;SDS011;1025;42.686;23.350;2024-02-23T08:44:57;12.17;;;10.30;;
2039;SDS011;1025;42.686;23.350;2024-02-23T08:47:24;11.43;;;10.23;;
2039;SDS011;1025;42.686;23.350;2024-02-23T08:49:53;19.63;;;11.73;;
2039;SDS011;1025;42.686;23.350;2024-02-23T08:52:21;10.63;;;9.40;;
2039;SDS011;1025;42.686;23.350;2024-02-23T08:54:53;10.13;;;9.13;;
2039;SDS011;1025;42.686;23.350;2024-02-23T08:57:27;10.93;;;9.80;;
2039;SDS011;1025;42.686;23.350;2024-02-23T08:59:56;13.27;;;10.23;;
2039;SDS011;1025;42.686;23.350;2024-02-23T09:02:23;10.37;;;9.37;;
2039;SDS011;1025;42.686;23.350;2024-02-23T09:04:49;10.50;;;8.60;;
2039;SDS011;1025;42.686;23.350;2024-02-23T09:07:17;11.37;;;10.27;;
2039;SDS011;1025;42.686;23.350;2024-02-23T09:09:46;14.10;;;9.50;;
2039;SDS011;1025;42.686;23.350;2024-02-23T09:12:17;9.40;;;8.17;;
2039;SDS011;1025;42.686;23.350;2024-02-23T09:14:44;13.30;;;8.70;;
2039;SDS011;1025;42.686;23.350;2024-02-23T09:17:19;8.77;;;7.90;;
2039;SDS011;1025;42.686;23.350;2024-02-23T09:19:46;15.07;;;7.77;;
2039;SDS011;1025;42.686;23.350;2024-02-23T09:22:12;10.90;;;8.07;;
2039;SDS011;1025;42.686;23.350;2024-02-23T09:24:44;8.47;;;7.67;;
2039;SDS011;1025;42.686;23.350;2024-02-23T09:27:10;8.37;;;7.57;;
2039;SDS011;1025;42.686;23.350;2024-02-23T09:29:43;7.30;;;6.63;;
2039;SDS011;1025;42.686;23.350;2024-02-23T09:32:14;9.87;;;7.67;;
2039;SDS011;1025;42.686;23.350;2024-02-23T09:34:40;8.43;;;6.87;;
2039;SDS011;1025;42.686;23.350;2024-02-23T09:37:10;12.83;;;8.20;;
2039;SDS011;1025;42.686;23.350;2024-02-23T09:39:39;14.87;;;6.93;;
2039;SDS011;1025;42.686;23.350;2024-02-23T09:42:09;7.10;;;5.67;;
2039;SDS011;1025;42.686;23.350;2024-02-23T09:44:38;9.47;;;5.83;;
2039;SDS011;1025;42.686;23.350;2024-02-23T09:47:14;11.07;;;5.80;;
2039;SDS011;1025;42.686;23.350;2024-02-23T09:49:41;6.17;;;5.50;;
2039;SDS011;1025;42.686;23.350;2024-02-23T09:52:08;7.20;;;5.80;;
2039;SDS011;1025;42.686;23.350;2024-02-23T09:54:41;11.80;;;6.17;;
2039;SDS011;1025;42.686;23.350;2024-02-23T09:57:10;5.63;;;5.10;;
2039;SDS011;1025;42.686;23.350;2024-02-23T09:59:36;8.73;;;5.03;;
2039;SDS011;1025;42.686;23.350;2024-02-23T10:02:06;5.87;;;5.07;;
2039;SDS011;1025;42.686;23.350;2024-02-23T10:04:40;6.60;;;4.93;;
2039;SDS011;1025;42.686;23.350;2024-02-23T10:07:08;8.80;;;5.77;;
2039;SDS011;1025;42.686;23.350;2024-02-23T10:09:39;9.97;;;5.50;;
2039;SDS011;1025;42.686;23.350;2024-02-23T10:12:08;5.50;;;4.53;;
2039;SDS011;1025;42.686;23.350;2024-02-23T10:14:36;7.27;;;5.10;;
2039;SDS011;1025;42.686;23.350;2024-02-23T10:17:03;5.07;;;4.57;;
2039;SDS011;1025;42.686;23.350;2024-02-23T10:19:35;5.60;;;4.73;;
2039;SDS011;1025;42.686;23.350;2024-02-23T10:22:05;4.13;;;3.73;;
2039;SDS011;1025;42.686;23.350;2024-02-23T10:24:31;4.73;;;4.33;;
2039;SDS011;1025;42.686;23.350;2024-02-23T10:27:00;7.87;;;4.53;;
2039;SDS011;1025;42.686;23.350;2024-02-23T10:29:28;4.20;;;3.23;;
2039;SDS011;1025;42.686;23.350;2024-02-23T10:31:54;10.23;;;5.83;;
2039;SDS011;1025;42.686;23.350;2024-02-23T10:34:27;6.23;;;4.20;;
2039;SDS011;1025;42.686;23.350;2024-02-23T10:36:58;3.90;;;3.50;;
2039;SDS011;1025;42.686;23.350;2024-02-23T10:39:26;4.50;;;3.80;;
2039;SDS011;1025;42.686;23.350;2024-02-23T10:41:57;9.43;;;5.10;;
2039;SDS011;1025;42.686;23.350;2024-02-23T10:44:29;4.27;;;3.97;;
2039;SDS011;1025;42.686;23.350;2024-02-23T10:46:59;4.20;;;3.20;;
2039;SDS011;1025;42.686;23.350;2024-02-23T10:49:30;7.03;;;4.80;;
2039;SDS011;1025;42.686;23.350;2024-02-23T10:51:59;3.97;;;3.33;;
2039;SDS011;1025;42.686;23.350;2024-02-23T10:54:28;6.20;;;3.30;;
2039;SDS011;1025;42.686;23.350;2024-02-23T10:56:56;3.80;;;2.40;;
2039;SDS011;1025;42.686;23.350;2024-02-23T10:59:25;3.40;;;3.10;;
2039;SDS011;1025;42.686;23.350;2024-02-23T11:01:54;6.10;;;3.03;;
2039;SDS011;1025;42.686;23.350;2024-02-23T11:04:24;2.90;;;2.70;;
2039;SDS011;1025;42.686;23.350;2024-02-23T11:06:57;6.10;;;3.80;;
2039;SDS011;1025;42.686;23.350;2024-02-23T11:09:25;4.03;;;2.83;;
2039;SDS011;1025;42.686;23.350;2024-02-23T11:11:54;4.50;;;2.60;;
2039;SDS011;1025;42.686;23.350;2024-02-23T11:14:35;5.90;;;5.47;;
2039;SDS011;1025;42.686;23.350;2024-02-23T11:17:04;4.93;;;4.53;;
2039;SDS011;1025;42.686;23.350;2024-02-23T11:19:34;3.57;;;3.10;;
2039;SDS011;1025;42.686;23.350;2024-02-23T11:22:04;3.23;;;2.90;;
2039;SDS011;1025;42.686;23.350;2024-02-23T11:24:31;2.87;;;2.67;;
2039;SDS011;1025;42.686;23.350;2024-02-23T11:26:59;6.23;;;2.80;;
2039;SDS011;1025;42.686;23.350;2024-02-23T11:29:35;2.97;;;2.77;;
2039;SDS011;1025;42.686;23.350;2024-02-23T11:32:12;8.33;;;3.30;;
2039;SDS011;1025;42.686;23.350;2024-02-23T11:34:40;2.57;;;2.37;;
2039;SDS011;1025;42.686;23.350;2024-02-23T11:37:09;4.50;;;2.80;;
2039;SDS011;1025;42.686;23.350;2024-02-23T11:39:36;1.97;;;1.87;;
2039;SDS011;1025;42.686;23.350;2024-02-23T11:42:07;3.03;;;2.57;;
2039;SDS011;1025;42.686;23.350;2024-02-23T11:44:34;4.70;;;4.20;;
2039;SDS011;1025;42.686;23.350;2024-02-23T11:47:03;2.73;;;2.53;;
2039;SDS011;1025;42.686;23.350;2024-02-23T11:49:37;5.27;;;3.17;;
2039;SDS011;1025;42.686;23.350;2024-02-23T11:52:04;7.30;;;5.50;;
2039;SDS011;1025;42.686;23.350;2024-02-23T11:54:34;6.33;;;3.73;;
2039;SDS011;1025;42.686;23.350;2024-02-23T11:57:02;13.40;;;4.77;;
2039;SDS011;1025;42.686;23.350;2024-02-23T11:59:33;6.10;;;4.57;;
2039;SDS011;1025;42.686;23.350;2024-02-23T12:02:04;3.53;;;3.23;;
2039;SDS011;1025;42.686;23.350;2024-02-23T12:04:32;6.10;;;3.53;;
2039;SDS011;1025;42.686;23.350;2024-02-23T12:07:00;5.80;;;3.60;;
2039;SDS011;1025;42.686;23.350;2024-02-23T12:09:29;4.10;;;3.70;;
2039;SDS011;1025;42.686;23.350;2024-02-23T12:12:00;8.73;;;3.43;;
2039;SDS011;1025;42.686;23.350;2024-02-23T12:14:30;6.70;;;2.80;;
2039;SDS011;1025;42.686;23.350;2024-02-23T12:16:57;3.80;;;3.50;;
2039;SDS011;1025;42.686;23.350;2024-02-23T12:19:26;3.43;;;3.13;;
2039;SDS011;1025;42.686;23.350;2024-02-23T12:21:54;5.10;;;2.80;;
2039;SDS011;1025;42.686;23.350;2024-02-23T12:24:29;3.13;;;2.40;;
2039;SDS011;1025;42.686;23.350;2024-02-23T12:26:56;17.53;;;4.10;;
2039;SDS011;1025;42.686;23.350;2024-02-23T12:29:26;3.63;;;3.33;;
2039;SDS011;1025;42.686;23.350;2024-02-23T12:32:03;3.93;;;2.23;;
2039;SDS011;1025;42.686;23.350;2024-02-23T12:34:35;3.40;;;2.33;;
2039;SDS011;1025;42.686;23.350;2024-02-23T12:37:02;2.53;;;2.03;;
2039;SDS011;1025;42.686;23.350;2024-02-23T12:39:28;7.83;;;5.90;;
2039;SDS011;1025;42.686;23.350;2024-02-23T12:41:59;2.57;;;2.37;;
2039;SDS011;1025;42.686;23.350;2024-02-23T12:44:28;7.87;;;3.00;;
2039;SDS011;1025;42.686;23.350;2024-02-23T12:46:58;9.97;;;4.10;;
2039;SDS011;1025;42.686;23.350;2024-02-23T12:49:27;7.63;;;3.63;;
2039;SDS011;1025;42.686;23.350;2024-02-23T12:51:56;5.23;;;3.17;;
2039;SDS011;1025;42.686;23.350;2024-02-23T12:54:23;3.03;;;2.70;;
2039;SDS011;1025;42.686;23.350;2024-02-23T12:56:49;3.10;;;2.80;;
2039;SDS011;1025;42.686;23.350;2024-02-23T12:59:19;2.53;;;2.33;;
2039;SDS011;1025;42.686;23.350;2024-02-23T13:01:48;8.30;;;3.13;;
2039;SDS011;1025;42.686;23.350;2024-02-23T13:04:14;6.97;;;3.30;;
2039;SDS011;1025;42.686;23.350;2024-02-23T13:06:44;5.00;;;3.60;;
2039;SDS011;1025;42.686;23.350;2024-02-23T13:09:16;5.00;;;3.87;;
2039;SDS011;1025;42.686;23.350;2024-02-23T13:11:47;5.70;;;2.97;;
2039;SDS011;1025;42.686;23.350;2024-02-23T13:14:16;3.20;;;2.90;;
2039;SDS011;1025;42.686;23.350;2024-02-23T13:16:43;8.30;;;5.10;;
2039;SDS011;1025;42.686;23.350;2024-02-23T13:19:12;2.53;;;2.33;;
2039;SDS011;1025;42.686;23.350;2024-02-23T13:21:42;1.87;;;1.77;;
2039;SDS011;1025;42.686;23.350;2024-02-23T13:24:11;2.23;;;1.90;;
2039;SDS011;1025;42.686;23.350;2024-02-23T13:26:37;3.30;;;2.87;;
2039;SDS011;1025;42.686;23.350;2024-02-23T13:29:06;6.40;;;2.20;;
2039;SDS011;1025;42.686;23.350;2024-02-23T13:31:34;3.17;;;2.97;;
2039;SDS011;1025;42.686;23.350;2024-02-23T13:34:08;6.27;;;2.53;;
2039;SDS011;1025;42.686;23.350;2024-02-23T13:36:35;4.93;;;2.97;;
2039;SDS011;1025;42.686;23.350;2024-02-23T13:39:06;8.30;;;3.40;;
2039;SDS011;1025;42.686;23.350;2024-02-23T13:41:33;3.90;;;3.60;;
2039;SDS011;1025;42.686;23.350;2024-02-23T13:44:06;7.00;;;3.20;;
2039;SDS011;1025;42.686;23.350;2024-02-23T13:46:34;4.17;;;3.20;;
2039;SDS011;1025;42.686;23.350;2024-02-23T13:49:06;7.23;;;3.40;;
2039;SDS011;1025;42.686;23.350;2024-02-23T13:51:36;3.53;;;3.23;;
2039;SDS011;1025;42.686;23.350;2024-02-23T13:54:04;4.43;;;2.93;;
2039;SDS011;1025;42.686;23.350;2024-02-23T13:56:31;6.03;;;3.17;;
2039;SDS011;1025;42.686;23.350;2024-02-23T13:58:57;5.70;;;2.37;;
2039;SDS011;1025;42.686;23.350;2024-02-23T14:01:24;3.87;;;2.53;;
2039;SDS011;1025;42.686;23.350;2024-02-23T14:06:42;6.40;;;5.13;;
2039;SDS011;1025;42.686;23.350;2024-02-23T14:09:10;3.60;;;2.50;;
2039;SDS011;1025;42.686;23.350;2024-02-23T14:11:40;5.97;;;2.80;;
2039;SDS011;1025;42.686;23.350;2024-02-23T14:14:06;6.70;;;3.90;;
2039;SDS011;1025;42.686;23.350;2024-02-23T14:16:35;5.50;;;3.60;;
2039;SDS011;1025;42.686;23.350;2024-02-23T14:19:02;1.80;;;1.70;;
2039;SDS011;1025;42.686;23.350;2024-02-23T14:21:28;2.43;;;2.10;;
2039;SDS011;1025;42.686;23.350;2024-02-23T14:24:01;3.43;;;2.60;;
2039;SDS011;1025;42.686;23.350;2024-02-23T14:26:31;5.50;;;3.13;;
2039;SDS011;1025;42.686;23.350;2024-02-23T14:28:59;6.97;;;3.30;;
2039;SDS011;1025;42.686;23.350;2024-02-23T14:31:28;3.90;;;3.50;;
2039;SDS011;1025;42.686;23.350;2024-02-23T14:33:57;7.43;;;3.17;;
2039;SDS011;1025;42.686;23.350;2024-02-23T14:36:23;4.60;;;3.50;;
2039;SDS011;1025;42.686;23.350;2024-02-23T14:38:51;4.90;;;2.90;;
2039;SDS011;1025;42.686;23.350;2024-02-23T14:41:22;3.20;;;3.00;;
2039;SDS011;1025;42.686;23.350;2024-02-23T14:43:50;8.23;;;4.30;;
2039;SDS011;1025;42.686;23.350;2024-02-23T14:46:22;2.70;;;2.50;;
2039;SDS011;1025;42.686;23.350;2024-02-23T14:48:51;2.27;;;2.07;;
2039;SDS011;1025;42.686;23.350;2024-02-23T14:51:21;2.67;;;2.47;;
2039;SDS011;1025;42.686;23.350;2024-02-23T14:53:50;2.70;;;2.50;;
2039;SDS011;1025;42.686;23.350;2024-02-23T14:56:19;3.57;;;2.63;;
2039;SDS011;1025;42.686;23.350;2024-02-23T14:58:46;2.47;;;2.27;;
2039;SDS011;1025;42.686;23.350;2024-02-23T15:01:18;3.30;;;2.97;;
2039;SDS011;1025;42.686;23.350;2024-02-23T15:03:45;3.07;;;2.20;;
2039;SDS011;1025;42.686;23.350;2024-02-23T15:06:15;8.30;;;3.77;;
2039;SDS011;1025;42.686;23.350;2024-02-23T15:08:46;2.70;;;2.50;;
2039;SDS011;1025;42.686;23.350;2024-02-23T15:11:18;7.93;;;4.67;;
2039;SDS011;1025;42.686;23.350;2024-02-23T15:13:46;3.83;;;3.00;;